Site:       
  Group:  
  From:      To:        
   
Sensor Name: Furnace      Latitude:-9.57320000 , Longitude:53.92290000
Please click on the Table Headers to view a Graph of the Observations.
TimeMax. Temp. (°C)Min. Temp. (°C)Mean Temp. (°C)Tot. Rain (mm)Mean Wind (kn)Max Gust (kn)Solar Rad. (J\cm2)Humidity (%)Atmos. Press. (mb)Temp. 5cm (°C)Temp. 10cm (°C)Temp. 20cm (°C)Temp. 30cm (°C)Temp. 50cm (°C)Temp. 100cm (°C)Grass Min. (°C)
21/09/2018 23:00:009.60 9.10 9.40 0.00 6.40 10.20 0.00 -999.00 1013.60 -999.00 10.90 12.00 12.50 13.00 14.10 8.50
21/09/2018 22:00:009.80 9.20 9.50 0.00 7.50 11.00 0.00 -999.00 1013.30 -999.00 11.20 12.20 12.50 13.00 14.10 8.50
21/09/2018 21:00:009.30 8.50 8.90 0.00 7.30 13.20 0.00 -999.00 1013.00 -999.00 11.70 12.40 12.50 13.00 14.10 7.50
21/09/2018 20:00:0010.00 9.00 9.50 0.00 8.10 14.90 0.00 -999.00 1012.60 -999.00 12.30 12.60 12.50 13.00 14.10 8.10
21/09/2018 19:00:0010.80 10.00 10.40 0.00 10.20 17.20 3.20 -999.00 1011.90 -999.00 12.90 12.70 12.50 13.00 14.10 9.20
21/09/2018 18:00:0011.80 10.80 11.30 0.00 12.00 21.70 30.70 -999.00 1011.10 -999.00 13.50 12.60 12.40 13.00 14.10 10.60
21/09/2018 17:00:0012.60 11.80 12.20 0.00 12.20 22.20 74.50 -999.00 1010.50 -999.00 13.90 12.40 12.30 13.00 14.10 12.60
21/09/2018 16:00:0015.10 12.40 13.80 0.00 11.70 21.30 138.50 -999.00 1009.80 -999.00 13.90 12.00 12.30 13.10 14.20 13.20
21/09/2018 15:00:0015.90 14.00 15.00 0.00 13.50 25.30 208.80 -999.00 1008.90 -999.00 13.10 11.60 12.20 13.10 14.20 16.70
21/09/2018 14:00:0014.90 13.00 14.00 0.00 16.80 27.90 174.10 -999.00 1008.30 -999.00 12.20 11.30 12.10 13.10 14.20 14.40
21/09/2018 13:00:0014.20 11.00 12.60 0.00 14.80 24.60 139.70 -999.00 1007.70 -999.00 11.40 11.10 12.10 13.10 14.20 10.30
21/09/2018 12:00:0012.60 11.00 11.80 0.20 17.10 30.00 90.10 -999.00 1006.60 -999.00 10.90 11.00 12.10 13.20 14.20 10.20
21/09/2018 11:00:0012.90 11.70 12.30 0.00 16.00 30.20 80.10 -999.00 1005.20 -999.00 10.40 10.90 12.20 13.20 14.20 11.10
21/09/2018 10:00:0012.50 11.20 11.80 0.00 16.90 31.90 53.80 -999.00 1003.80 -999.00 10.00 10.90 12.20 13.20 14.20 11.20
21/09/2018 09:00:0011.50 9.90 10.70 0.80 20.30 37.00 20.70 -999.00 1002.20 -999.00 9.90 11.00 12.20 13.20 14.20 8.30
21/09/2018 08:00:0011.40 10.30 10.90 0.20 21.50 40.50 15.10 -999.00 1000.50 -999.00 9.90 11.10 12.30 13.30 14.20 8.50
21/09/2018 07:00:0011.20 10.30 10.80 0.00 19.90 35.80 1.30 -999.00 999.20 -999.00 10.00 11.10 12.40 13.30 14.20 9.80
21/09/2018 06:00:0010.40 9.00 9.70 0.00 15.10 28.20 0.00 -999.00 998.30 -999.00 10.00 11.20 12.40 13.30 14.20 8.40
21/09/2018 05:00:009.00 8.10 8.60 1.30 8.90 22.00 0.00 -999.00 997.80 -999.00 10.00 11.30 12.50 13.30 14.20 7.50
21/09/2018 04:00:008.10 7.30 7.70 0.40 6.70 20.20 0.00 -999.00 998.30 -999.00 10.10 11.50 12.60 13.40 14.20 6.70
21/09/2018 03:00:007.80 7.10 7.40 0.50 10.00 25.00 0.00 -999.00 998.40 -999.00 10.30 11.70 12.70 13.40 14.20 5.60
21/09/2018 02:00:008.40 6.90 7.70 0.10 11.60 24.20 0.00 -999.00 998.50 -999.00 10.60 11.90 12.70 13.40 14.20 5.80
21/09/2018 01:00:007.70 6.90 7.30 0.20 8.80 17.50 0.00 -999.00 998.20 -999.00 10.90 12.00 12.80 13.40 14.30 5.70
21/09/2018 00:00:007.70 7.40 7.50 0.10 7.00 16.30 0.00 92.70 998.00 10.70 11.10 12.20 12.90 13.40 14.30 6.80
20/09/2018 23:00:008.80 7.60 8.20 0.70 9.30 23.20 0.00 88.30 997.50 -999.00 11.30 12.40 12.90 13.40 14.30 -999.00
20/09/2018 22:00:008.20 7.30 7.80 0.10 2.30 8.30 0.00 91.10 997.30 -999.00 11.60 12.50 12.90 13.40 14.30 -999.00